Time;durP1;ratioP1;P1;durP2;ratioP2;P2;SDS_P1;SDS_P2;PMS_P1;PMS_P2;Temp;Humidity;BMP_temperature;BMP_pressure;BME280_temperature;BME280_humidity;BME280_pressure;Samples;Min_cycle;Max_cycle;Signal;HPM_P1;HPM_P2
2022/04/14 00:01:53;;;;;;;19.92;9.85;;;11.20;99.90;;;;;;5048009;28;20036;-81
2022/04/14 00:04:19;;;;;;;17.13;9.25;;;11.30;99.90;;;;;;5052112;28;20052;-81
2022/04/14 00:06:45;;;;;;;14.35;9.18;;;11.10;99.90;;;;;;5068471;28;20051;-80
2022/04/14 00:09:11;;;;;;;18.60;9.70;;;11.20;99.90;;;;;;5054452;28;20044;-81
2022/04/14 00:11:38;;;;;;;17.63;9.93;;;11.10;99.90;;;;;;5049042;28;20052;-81
2022/04/14 00:14:04;;;;;;;19.33;9.27;;;11.20;99.90;;;;;;5049589;28;20167;-80
2022/04/14 00:16:30;;;;;;;15.02;9.80;;;11.10;99.90;;;;;;5031031;28;20528;-81
2022/04/14 00:18:56;;;;;;;17.08;9.82;;;11.10;99.90;;;;;;5061264;28;20032;-81
2022/04/14 00:21:21;;;;;;;18.45;10.18;;;11.30;99.90;;;;;;5064685;28;20079;-81
2022/04/14 00:23:47;;;;;;;21.40;10.65;;;11.20;99.90;;;;;;5064336;28;20037;-81
2022/04/14 00:26:13;;;;;;;17.63;10.10;;;11.00;99.90;;;;;;5044933;28;20486;-80
2022/04/14 00:28:38;;;;;;;18.25;10.52;;;11.00;99.90;;;;;;5050316;28;20044;-81
2022/04/14 00:31:04;;;;;;;19.15;10.98;;;11.10;99.90;;;;;;5049035;28;20032;-82
2022/04/14 00:33:31;;;;;;;16.92;10.80;;;11.30;99.90;;;;;;5064539;28;20064;-82
2022/04/14 00:35:57;;;;;;;18.10;10.60;;;10.90;99.90;;;;;;5055908;28;20046;-82
2022/04/14 00:38:22;;;;;;;18.02;10.82;;;11.40;99.90;;;;;;5069995;28;20056;-81
2022/04/14 00:40:49;;;;;;;19.80;11.00;;;10.90;99.90;;;;;;5083903;28;20032;-81
2022/04/14 00:43:16;;;;;;;19.20;11.45;;;10.80;99.90;;;;;;5087037;28;20023;-81
2022/04/14 00:45:43;;;;;;;21.75;11.10;;;10.90;99.90;;;;;;5072819;28;20100;-80
2022/04/14 00:48:09;;;;;;;20.58;11.32;;;11.10;99.90;;;;;;5068548;28;20052;-80
2022/04/14 00:50:34;;;;;;;20.80;11.48;;;11.40;99.90;;;;;;5047645;28;20045;-81
2022/04/14 00:53:00;;;;;;;22.52;12.48;;;11.30;99.90;;;;;;5048057;28;20889;-81
2022/04/14 00:55:26;;;;;;;23.08;13.05;;;10.90;99.90;;;;;;5061540;28;20348;-82
2022/04/14 00:57:52;;;;;;;20.08;12.38;;;10.60;99.90;;;;;;5062644;28;20068;-82
2022/04/14 01:00:17;;;;;;;18.55;11.70;;;10.70;99.90;;;;;;5044896;28;20039;-81
2022/04/14 01:02:44;;;;;;;25.70;12.40;;;10.90;99.90;;;;;;5046251;28;20036;-80
2022/04/14 01:05:10;;;;;;;20.77;12.10;;;10.80;99.90;;;;;;5030340;28;20091;-82
2022/04/14 01:07:37;;;;;;;21.48;12.98;;;10.90;99.90;;;;;;5028988;28;20498;-82
2022/04/14 01:10:05;;;;;;;20.60;12.23;;;10.60;99.90;;;;;;5045316;28;20041;-82
2022/04/14 01:12:32;;;;;;;21.15;12.93;;;10.50;99.90;;;;;;5031075;28;20102;-81
2022/04/14 01:14:58;;;;;;;24.42;12.65;;;10.30;99.90;;;;;;5029648;28;20362;-81
2022/04/14 01:17:23;;;;;;;18.15;12.55;;;10.30;99.90;;;;;;5043132;28;20055;-81
2022/04/14 01:19:49;;;;;;;23.65;13.13;;;10.50;99.90;;;;;;5027232;28;20403;-81
2022/04/14 01:22:25;;;;;;;23.08;12.25;;;10.40;99.90;;;;;;5048000;28;20056;-81
2022/04/14 01:24:55;;;;;;;20.98;13.45;;;10.40;99.90;;;;;;5031920;28;20076;-80
2022/04/14 01:27:21;;;;;;;17.77;12.60;;;10.30;99.90;;;;;;5067044;28;20132;-82
2022/04/14 01:29:46;;;;;;;23.10;12.82;;;10.30;99.90;;;;;;5044326;28;20495;-81
2022/04/14 01:32:15;;;;;;;23.80;13.20;;;10.30;99.90;;;;;;5029918;28;20040;-80
2022/04/14 01:34:41;;;;;;;22.42;14.02;;;10.30;99.90;;;;;;5032434;28;20123;-80
2022/04/14 01:37:07;;;;;;;26.65;13.80;;;10.20;99.90;;;;;;5045333;28;20140;-81
2022/04/14 01:39:33;;;;;;;23.00;14.25;;;10.20;99.90;;;;;;5054092;28;20051;-81
2022/04/14 01:41:58;;;;;;;25.73;14.65;;;10.20;99.90;;;;;;5047943;28;20341;-81
2022/04/14 01:44:24;;;;;;;22.65;14.23;;;10.20;99.90;;;;;;5030864;28;20033;-81
2022/04/14 01:46:50;;;;;;;23.02;14.10;;;10.50;99.90;;;;;;5045917;28;20104;-81
2022/04/14 01:49:15;;;;;;;22.33;13.35;;;10.60;99.90;;;;;;5053130;28;20044;-81
2022/04/14 01:51:41;;;;;;;24.63;13.98;;;10.10;99.90;;;;;;5063749;28;20044;-80
2022/04/14 01:54:07;;;;;;;22.17;13.02;;;10.20;99.90;;;;;;5037720;28;20041;-80
2022/04/14 01:56:33;;;;;;;24.98;13.55;;;10.00;99.90;;;;;;5026249;28;20068;-82
2022/04/14 01:58:59;;;;;;;20.08;13.27;;;9.90;99.90;;;;;;5041751;28;20045;-82
2022/04/14 02:01:24;;;;;;;24.45;13.65;;;10.30;99.90;;;;;;5040320;28;20041;-83
2022/04/14 02:03:50;;;;;;;23.55;14.07;;;9.90;99.90;;;;;;5044362;28;20045;-82
2022/04/14 02:06:16;;;;;;;25.55;14.18;;;10.30;99.90;;;;;;5040858;28;20045;-82
2022/04/14 02:08:45;;;;;;;28.25;15.32;;;10.30;99.90;;;;;;5039020;28;20120;-82
2022/04/14 02:11:11;;;;;;;21.35;14.48;;;9.80;99.90;;;;;;5047559;28;20141;-84
2022/04/14 02:13:37;;;;;;;23.40;14.75;;;10.30;99.90;;;;;;5045199;28;20037;-83
2022/04/14 02:16:03;;;;;;;22.75;15.48;;;10.10;99.90;;;;;;5027720;28;20041;-80
2022/04/14 02:18:28;;;;;;;27.92;15.35;;;9.80;99.90;;;;;;5041855;28;20048;-80
2022/04/14 02:20:54;;;;;;;29.77;15.95;;;9.80;99.90;;;;;;5028510;28;20063;-81
2022/04/14 02:23:20;;;;;;;24.83;15.80;;;9.70;99.90;;;;;;5042948;28;20044;-81
2022/04/14 02:25:46;;;;;;;30.90;16.73;;;10.00;99.90;;;;;;5038207;28;20061;-81
2022/04/14 02:28:13;;;;;;;33.50;17.50;;;9.70;99.90;;;;;;5045678;28;20337;-81
2022/04/14 02:30:39;;;;;;;22.92;15.30;;;9.60;99.90;;;;;;5046190;28;20518;-81
2022/04/14 02:33:04;;;;;;;26.08;16.05;;;10.30;99.90;;;;;;5045499;28;20040;-81
2022/04/14 02:35:36;;;;;;;28.13;15.85;;;9.60;99.90;;;;;;5047338;28;20114;-81
2022/04/14 02:38:02;;;;;;;29.52;16.17;;;9.60;99.90;;;;;;5024014;28;20053;-81
2022/04/14 02:40:27;;;;;;;26.70;15.90;;;9.90;99.90;;;;;;5048904;28;20060;-81
2022/04/14 02:42:54;;;;;;;26.65;15.63;;;9.50;99.90;;;;;;5046823;28;20094;-81
2022/04/14 02:45:25;;;;;;;29.17;16.50;;;9.50;99.90;;;;;;5028282;28;20049;-81
2022/04/14 02:47:51;;;;;;;26.00;16.73;;;9.40;99.90;;;;;;5018599;28;20049;-81
2022/04/14 02:50:19;;;;;;;30.40;17.48;;;9.40;99.90;;;;;;5030215;28;20388;-81
2022/04/14 02:52:45;;;;;;;27.23;16.55;;;9.40;99.90;;;;;;5046312;28;20029;-81
2022/04/14 02:55:10;;;;;;;35.40;18.63;;;9.40;99.90;;;;;;5046118;28;20202;-81
2022/04/14 02:57:36;;;;;;;27.38;17.50;;;9.50;99.90;;;;;;5045002;28;20515;-81
2022/04/14 03:00:05;;;;;;;27.50;16.90;;;9.40;99.90;;;;;;5042853;28;20372;-81
2022/04/14 03:02:31;;;;;;;27.33;16.55;;;9.30;99.90;;;;;;5047858;28;20079;-80
2022/04/14 03:04:58;;;;;;;28.92;17.20;;;9.20;99.90;;;;;;5022748;28;20480;-80
2022/04/14 03:07:24;;;;;;;32.20;18.27;;;9.40;99.90;;;;;;5041048;28;20056;-81
2022/04/14 03:09:51;;;;;;;28.65;19.05;;;9.80;99.90;;;;;;5044590;28;20044;-81
2022/04/14 03:12:16;;;;;;;30.80;19.00;;;9.60;99.90;;;;;;5044466;28;20370;-81
2022/04/14 03:14:46;;;;;;;36.05;18.90;;;9.20;99.90;;;;;;5026527;28;20045;-81
2022/04/14 03:17:12;;;;;;;34.30;19.83;;;9.20;99.90;;;;;;5041646;28;20529;-81
2022/04/14 03:19:38;;;;;;;40.67;20.25;;;9.10;99.90;;;;;;5043003;28;20095;-81
2022/04/14 03:22:04;;;;;;;32.40;20.15;;;9.10;99.90;;;;;;5039967;28;20333;-81
2022/04/14 03:24:29;;;;;;;32.47;20.02;;;9.10;99.90;;;;;;5048695;28;20040;-81
2022/04/14 03:26:55;;;;;;;34.60;19.90;;;9.50;99.90;;;;;;5028912;28;20033;-82
2022/04/14 03:29:21;;;;;;;35.25;19.25;;;9.00;99.90;;;;;;5044049;28;20476;-81
2022/04/14 03:31:46;;;;;;;29.63;19.17;;;8.90;99.90;;;;;;5021883;28;20831;-81
2022/04/14 03:34:15;;;;;;;36.08;20.35;;;8.90;99.90;;;;;;5023955;28;20090;-81
2022/04/14 03:36:41;;;;;;;35.88;20.27;;;8.90;99.90;;;;;;5043562;28;20049;-81
2022/04/14 03:39:06;;;;;;;35.38;20.98;;;9.30;99.90;;;;;;5046594;28;20064;-81
2022/04/14 03:41:32;;;;;;;31.92;20.42;;;9.10;99.90;;;;;;5044281;28;20041;-81
2022/04/14 03:43:58;;;;;;;36.78;21.13;;;8.80;99.90;;;;;;5032374;28;20456;-81
2022/04/14 03:46:24;;;;;;;31.90;20.40;;;8.90;99.90;;;;;;5043034;28;20044;-81
2022/04/14 03:48:50;;;;;;;29.25;20.20;;;8.80;99.90;;;;;;5029161;28;20128;-81
2022/04/14 03:51:16;;;;;;;32.28;22.08;;;8.80;99.90;;;;;;5046750;28;20050;-81
2022/04/14 03:53:45;;;;;;;32.70;20.98;;;8.90;99.90;;;;;;5047533;28;20033;-81
2022/04/14 03:56:10;;;;;;;32.58;20.08;;;8.90;99.90;;;;;;5043464;28;20376;-80
2022/04/14 03:58:36;;;;;;;34.13;22.45;;;8.60;99.90;;;;;;5026031;28;20037;-81
2022/04/14 04:01:05;;;;;;;41.80;24.25;;;8.70;99.90;;;;;;5027163;28;20087;-81
2022/04/14 04:03:30;;;;;;;43.60;24.48;;;8.60;99.90;;;;;;5026164;28;20064;-80
2022/04/14 04:05:56;;;;;;;40.60;24.25;;;8.70;99.90;;;;;;5026250;28;20356;-81
2022/04/14 04:08:22;;;;;;;47.67;24.85;;;9.10;99.90;;;;;;5040399;28;20053;-81
2022/04/14 04:10:48;;;;;;;50.30;25.60;;;8.60;99.90;;;;;;5044411;28;20044;-81
2022/04/14 04:13:13;;;;;;;45.10;25.27;;;8.60;99.90;;;;;;5027007;28;20041;-81
2022/04/14 04:15:39;;;;;;;43.53;25.55;;;9.10;99.90;;;;;;5030075;28;20063;-81
2022/04/14 04:18:06;;;;;;;43.08;25.90;;;8.60;99.90;;;;;;5046986;28;20029;-82
2022/04/14 04:20:32;;;;;;;43.42;26.15;;;8.80;99.90;;;;;;5041543;28;20053;-81
2022/04/14 04:22:58;;;;;;;43.80;25.52;;;8.60;99.90;;;;;;5042580;28;20041;-81
2022/04/14 04:25:24;;;;;;;39.45;24.70;;;8.60;99.90;;;;;;5024996;28;20110;-80
2022/04/14 04:27:49;;;;;;;44.08;25.10;;;8.60;99.90;;;;;;5025784;28;20131;-82
2022/04/14 04:30:15;;;;;;;45.83;24.23;;;8.50;99.90;;;;;;5046566;28;20041;-82
2022/04/14 04:32:41;;;;;;;43.63;26.08;;;8.50;99.90;;;;;;5050755;28;20447;-80
2022/04/14 04:35:08;;;;;;;36.00;24.10;;;9.10;99.90;;;;;;5026519;28;20152;-80
2022/04/14 04:37:34;;;;;;;42.65;24.33;;;8.50;99.90;;;;;;5037207;28;20047;-80
2022/04/14 04:40:00;;;;;;;40.72;26.17;;;9.10;99.90;;;;;;5036620;28;20550;-80
2022/04/14 04:42:25;;;;;;;40.70;25.10;;;8.40;99.90;;;;;;5024378;28;20061;-80
2022/04/14 04:44:52;;;;;;;39.58;24.83;;;8.40;99.90;;;;;;5040264;28;20478;-79
2022/04/14 04:47:20;;;;;;;46.10;26.77;;;9.00;99.90;;;;;;5006675;28;20044;-82
2022/04/14 04:49:47;;;;;;;48.75;28.30;;;8.90;99.90;;;;;;5015347;28;20466;-83
2022/04/14 04:52:13;;;;;;;49.83;29.88;;;8.50;99.90;;;;;;5026013;28;20503;-82
2022/04/14 04:54:38;;;;;;;46.55;28.40;;;8.30;99.90;;;;;;5042461;28;20045;-82
2022/04/14 04:57:04;;;;;;;45.35;28.75;;;9.00;99.90;;;;;;5047360;28;20107;-81
2022/04/14 04:59:31;;;;;;;45.47;27.40;;;8.40;99.90;;;;;;5044029;28;20522;-82
2022/04/14 05:01:56;;;;;;;48.70;28.98;;;8.40;99.90;;;;;;5027721;28;20041;-80
2022/04/14 05:04:22;;;;;;;50.17;29.27;;;8.40;99.90;;;;;;5026959;28;20047;-82
2022/04/14 05:06:48;;;;;;;49.95;29.95;;;8.40;99.90;;;;;;5042026;28;20114;-82
2022/04/14 05:09:13;;;;;;;57.20;30.50;;;8.40;99.90;;;;;;5037522;28;20076;-82
2022/04/14 05:11:39;;;;;;;49.28;30.73;;;8.50;99.90;;;;;;5040530;28;20106;-82
2022/04/14 05:14:05;;;;;;;48.15;27.90;;;8.70;99.90;;;;;;5042944;28;20109;-82
2022/04/14 05:16:30;;;;;;;43.03;28.35;;;8.60;99.90;;;;;;5045706;28;20041;-81
2022/04/14 05:18:56;;;;;;;49.45;29.52;;;8.60;99.90;;;;;;5048250;28;20045;-83
2022/04/14 05:21:22;;;;;;;51.17;30.20;;;9.00;99.90;;;;;;5032695;28;20056;-83
2022/04/14 05:23:47;;;;;;;48.50;29.38;;;9.10;99.90;;;;;;5050649;28;20036;-83
2022/04/14 05:26:13;;;;;;;49.83;30.27;;;8.60;99.90;;;;;;5044286;28;20178;-82
2022/04/14 05:28:39;;;;;;;51.75;28.25;;;8.60;99.90;;;;;;5049176;28;20059;-83
2022/04/14 05:31:04;;;;;;;49.65;29.35;;;9.10;99.90;;;;;;5054011;28;20361;-83
2022/04/14 05:33:30;;;;;;;51.50;30.15;;;9.20;99.90;;;;;;5031384;28;20063;-84
2022/04/14 05:35:56;;;;;;;51.05;30.05;;;9.50;99.90;;;;;;5030845;28;20045;-84
2022/04/14 05:38:21;;;;;;;60.40;31.98;;;8.70;99.90;;;;;;5045886;28;20049;-83
2022/04/14 05:40:47;;;;;;;60.42;32.67;;;8.80;99.90;;;;;;5045718;28;20048;-83
2022/04/14 05:43:21;;;;;;;56.42;33.20;;;9.00;99.90;;;;;;5047397;28;20037;-82
2022/04/14 05:45:48;;;;;;;62.63;34.08;;;8.80;99.90;;;;;;5032052;28;20044;-83
2022/04/14 05:48:15;;;;;;;59.88;33.95;;;9.10;99.90;;;;;;5049992;28;20217;-84
2022/04/14 05:50:45;;;;;;;46.92;28.42;;;8.90;99.90;;;;;;5032163;28;20060;-85
2022/04/14 05:53:16;;;;;;;55.95;34.70;;;9.00;99.90;;;;;;5050530;28;20049;-83
2022/04/14 05:55:42;;;;;;;73.03;36.40;;;9.00;99.90;;;;;;5050013;28;20138;-83
2022/04/14 05:58:08;;;;;;;60.45;36.28;;;9.80;99.90;;;;;;5028256;28;20041;-82
2022/04/14 06:00:35;;;;;;;66.45;36.22;;;9.20;99.90;;;;;;5024449;28;20041;-82
2022/04/14 06:03:01;;;;;;;67.43;36.85;;;10.10;99.90;;;;;;5040958;28;20053;-82
2022/04/14 06:05:27;;;;;;;53.65;34.97;;;9.90;99.90;;;;;;5046716;28;20041;-81
2022/04/14 06:07:54;;;;;;;64.03;37.72;;;9.30;99.90;;;;;;5029900;28;20037;-82
2022/04/14 06:10:20;;;;;;;60.47;36.10;;;9.40;99.90;;;;;;5045702;28;20924;-82
2022/04/14 06:12:46;;;;;;;68.90;38.10;;;9.50;99.90;;;;;;5044729;28;22196;-82
2022/04/14 06:15:15;;;;;;;72.13;38.83;;;9.50;99.90;;;;;;5045758;28;20041;-82
2022/04/14 06:17:42;;;;;;;64.90;38.47;;;9.60;99.90;;;;;;5040561;28;20042;-82
2022/04/14 06:20:08;;;;;;;63.65;36.45;;;9.60;99.90;;;;;;5028931;28;20485;-82
2022/04/14 06:22:38;;;;;;;73.13;37.75;;;9.80;99.90;;;;;;5042036;28;20046;-81
2022/04/14 06:25:06;;;;;;;70.75;38.65;;;9.80;99.90;;;;;;5040132;28;20522;-80
2022/04/14 06:27:32;;;;;;;66.13;38.42;;;9.80;99.90;;;;;;5040404;28;20499;-82
2022/04/14 06:29:58;;;;;;;67.55;37.20;;;9.80;99.90;;;;;;5026081;28;20088;-83
2022/04/14 06:32:24;;;;;;;61.05;35.67;;;9.90;99.90;;;;;;5039856;28;20044;-82
2022/04/14 06:34:50;;;;;;;63.13;35.75;;;9.90;99.90;;;;;;5040006;28;20033;-84
2022/04/14 06:37:16;;;;;;;59.42;34.08;;;9.90;99.90;;;;;;5043533;28;20492;-82
2022/04/14 06:39:41;;;;;;;57.45;33.72;;;10.10;99.90;;;;;;5069127;28;20044;-82
2022/04/14 06:42:07;;;;;;;56.10;33.53;;;10.00;99.90;;;;;;5031134;28;20131;-84
2022/04/14 06:44:33;;;;;;;57.55;33.70;;;10.10;99.90;;;;;;5060769;28;20043;-83
2022/04/14 06:46:59;;;;;;;54.65;32.30;;;10.60;99.90;;;;;;5059863;28;20032;-84
2022/04/14 06:49:24;;;;;;;60.08;34.08;;;10.40;99.90;;;;;;5026632;28;20100;-85
2022/04/14 06:51:50;;;;;;;57.10;33.80;;;10.20;99.90;;;;;;5044460;28;20048;-82
2022/04/14 06:54:17;;;;;;;60.80;33.05;;;10.30;99.90;;;;;;5043205;28;20106;-82
2022/04/14 06:56:43;;;;;;;53.15;32.50;;;10.30;99.90;;;;;;5043029;28;20052;-81
2022/04/14 06:59:09;;;;;;;53.22;30.85;;;10.80;99.90;;;;;;5048125;28;20127;-80
2022/04/14 07:01:34;;;;;;;50.72;30.60;;;10.50;99.90;;;;;;5044811;28;20190;-80
2022/04/14 07:04:00;;;;;;;52.15;29.92;;;10.50;99.90;;;;;;5040605;28;20524;-81
2022/04/14 07:06:26;;;;;;;55.92;30.65;;;10.50;99.90;;;;;;5040865;28;20105;-82
2022/04/14 07:08:51;;;;;;;52.22;29.90;;;10.80;99.90;;;;;;5052169;28;20048;-83
2022/04/14 07:11:17;;;;;;;49.70;31.15;;;10.70;99.90;;;;;;5053735;28;20049;-82
2022/04/14 07:13:43;;;;;;;49.05;30.83;;;10.70;99.90;;;;;;5028365;28;20072;-83
2022/04/14 07:16:08;;;;;;;45.17;26.90;;;10.80;99.90;;;;;;5053434;28;20052;-82
2022/04/14 07:18:34;;;;;;;48.85;27.90;;;11.40;99.90;;;;;;5036410;28;20045;-83
2022/04/14 07:21:00;;;;;;;45.05;26.38;;;11.00;99.90;;;;;;5034167;28;20269;-81
2022/04/14 07:23:27;;;;;;;39.30;26.05;;;11.60;99.90;;;;;;5053026;28;20124;-83
2022/04/14 07:25:53;;;;;;;37.75;24.48;;;11.00;99.90;;;;;;5052222;28;20056;-82
2022/04/14 07:28:19;;;;;;;36.72;23.38;;;11.10;99.90;;;;;;5038556;28;20127;-82
2022/04/14 07:30:44;;;;;;;41.60;26.13;;;11.50;99.90;;;;;;5094822;28;20040;-82
2022/04/14 07:33:10;;;;;;;37.50;25.70;;;11.20;99.90;;;;;;5075006;28;20067;-82
2022/04/14 07:35:36;;;;;;;41.55;25.77;;;11.40;99.90;;;;;;5080004;28;20032;-82
2022/04/14 07:38:08;;;;;;;40.38;25.48;;;11.60;99.90;;;;;;5089683;28;20120;-84
2022/04/14 07:40:39;;;;;;;40.40;24.85;;;11.40;99.90;;;;;;5056109;28;20064;-83
2022/04/14 07:43:05;;;;;;;43.15;26.98;;;12.30;99.90;;;;;;5056454;28;20036;-82
2022/04/14 07:45:30;;;;;;;39.50;26.58;;;11.70;99.90;;;;;;5065089;28;20395;-83
2022/04/14 07:47:56;;;;;;;40.90;26.70;;;11.40;99.90;;;;;;5030997;28;20052;-83
2022/04/14 07:50:22;;;;;;;44.20;27.40;;;11.80;99.90;;;;;;5027607;28;20454;-82
2022/04/14 07:52:56;;;;;;;36.92;26.50;;;11.80;99.90;;;;;;5062889;28;20036;-82
2022/04/14 07:55:31;;;;;;;43.07;25.83;;;11.90;99.90;;;;;;5047552;28;21238;-81
2022/04/14 07:57:58;;;;;;;35.88;25.88;;;11.90;99.90;;;;;;5028177;28;20294;-82
2022/04/14 08:00:26;;;;;;;40.72;26.30;;;12.50;99.90;;;;;;5033334;28;20045;-82
2022/04/14 08:02:56;;;;;;;38.55;25.95;;;12.00;99.90;;;;;;5032340;28;20101;-83
2022/04/14 08:05:34;;;;;;;40.97;25.02;;;12.10;99.90;;;;;;5046589;28;20150;-82
2022/04/14 08:08:05;;;;;;;32.22;21.40;;;12.10;99.90;;;;;;5047900;28;20091;-81
2022/04/14 08:10:31;;;;;;;25.45;16.98;;;12.40;99.90;;;;;;5049617;28;20084;-81
2022/04/14 08:12:57;;;;;;;37.15;23.50;;;12.70;99.90;;;;;;5071947;28;20117;-83
2022/04/14 08:15:23;;;;;;;31.35;21.50;;;13.00;99.90;;;;;;5027261;28;20139;-81
2022/04/14 08:17:49;;;;;;;32.38;20.65;;;12.80;99.90;;;;;;5054511;28;20543;-82
2022/04/14 08:20:16;;;;;;;28.02;20.90;;;13.00;99.90;;;;;;5047870;28;20134;-80
2022/04/14 08:22:48;;;;;;;30.63;20.67;;;13.00;99.90;;;;;;5049414;28;20210;-82
2022/04/14 08:25:20;;;;;;;28.65;20.77;;;13.10;99.90;;;;;;5027572;28;20814;-81
2022/04/14 08:27:49;;;;;;;28.58;19.75;;;13.20;99.90;;;;;;5047789;28;20398;-83
2022/04/14 08:30:17;;;;;;;30.05;19.83;;;13.40;99.90;;;;;;5034324;28;20355;-82
2022/04/14 08:32:50;;;;;;;28.05;20.10;;;13.60;99.90;;;;;;5034553;28;20111;-85
2022/04/14 08:35:17;;;;;;;32.45;19.67;;;13.40;99.90;;;;;;5033014;28;20119;-82
2022/04/14 08:37:44;;;;;;;26.52;19.35;;;13.50;99.90;;;;;;5033874;28;20520;-80
2022/04/14 08:40:14;;;;;;;22.75;18.33;;;13.60;99.90;;;;;;5035212;28;20064;-83
2022/04/14 08:42:53;;;;;;;26.52;18.50;;;13.60;99.90;;;;;;5051809;28;20513;-82
2022/04/14 08:45:22;;;;;;;25.67;17.23;;;13.80;99.90;;;;;;5051598;28;20487;-84
2022/04/14 08:47:51;;;;;;;19.80;13.80;;;14.00;99.90;;;;;;5054610;28;20078;-84
2022/04/14 08:50:17;;;;;;;26.75;19.27;;;14.00;99.90;;;;;;5032179;28;20056;-80
2022/04/14 08:52:43;;;;;;;25.45;17.55;;;14.00;99.90;;;;;;5052158;28;20650;-82
2022/04/14 08:55:13;;;;;;;26.60;18.73;;;13.90;99.90;;;;;;5039773;28;20028;-82
2022/04/14 08:57:42;;;;;;;27.92;18.50;;;14.30;99.90;;;;;;5056253;28;20162;-83
2022/04/14 09:00:12;;;;;;;27.50;18.27;;;14.00;99.90;;;;;;5038734;28;20067;-79
2022/04/14 09:02:39;;;;;;;22.55;15.15;;;14.00;99.90;;;;;;5037860;28;20124;-81
2022/04/14 09:05:08;;;;;;;22.13;15.23;;;13.90;99.90;;;;;;5036380;28;20050;-82
2022/04/14 09:07:33;;;;;;;20.60;13.85;;;14.00;99.90;;;;;;5048046;28;20041;-84
2022/04/14 09:09:59;;;;;;;19.15;13.23;;;14.10;99.90;;;;;;5051673;28;20129;-81
2022/04/14 09:12:25;;;;;;;25.60;12.60;;;14.10;99.90;;;;;;5047620;28;20063;-82
2022/04/14 09:14:51;;;;;;;17.27;11.55;;;14.20;99.90;;;;;;5053021;28;20149;-85
2022/04/14 09:17:19;;;;;;;18.60;12.98;;;14.20;99.90;;;;;;5069651;28;20375;-87
2022/04/14 09:19:45;;;;;;;19.52;12.57;;;14.30;99.90;;;;;;5051647;28;20079;-85
2022/04/14 09:22:14;;;;;;;19.05;12.25;;;14.70;99.90;;;;;;5032528;28;20483;-80
2022/04/14 09:24:41;;;;;;;18.33;11.82;;;14.40;99.90;;;;;;5053995;28;20140;-83
2022/04/14 09:27:07;;;;;;;19.00;12.73;;;14.50;99.90;;;;;;5054220;28;20049;-83
2022/04/14 09:29:33;;;;;;;19.63;11.05;;;14.70;99.90;;;;;;5070594;28;20028;-80
2022/04/14 09:31:59;;;;;;;20.92;11.45;;;14.90;99.90;;;;;;5052659;28;20601;-82
2022/04/14 09:34:51;;;;;;;15.07;10.00;;;15.00;99.90;;;;;;5069733;28;20491;-84
2022/04/14 09:37:17;;;;;;;15.48;10.32;;;14.90;99.90;;;;;;5036126;28;20059;-84
2022/04/14 09:40:15;;;;;;;18.20;11.02;;;14.90;99.90;;;;;;5070971;28;20035;-86
2022/04/14 09:42:50;;;;;;;16.35;9.50;;;15.00;99.90;;;;;;4936922;28;20055;-83
2022/04/14 09:45:17;;;;;;;;;;;15.00;99.90;;;;;;4936724;28;20047;-83
2022/04/14 09:47:43;;;;;;;15.73;9.18;;;15.10;99.90;;;;;;4949513;28;19925;-83
2022/04/14 09:50:28;;;;;;;14.73;9.68;;;15.10;99.90;;;;;;4936342;28;20174;-82
2022/04/14 09:53:05;;;;;;;13.57;10.20;;;15.10;99.90;;;;;;4936792;28;20502;-82
2022/04/14 09:55:32;;;;;;;17.75;10.95;;;15.20;99.90;;;;;;4948031;28;20094;-82
2022/04/14 09:58:07;;;;;;;15.32;9.85;;;15.40;99.90;;;;;;4964813;28;20817;-82
2022/04/14 10:00:43;;;;;;;11.70;7.78;;;15.40;99.90;;;;;;4950847;28;20434;-83
2022/04/14 10:03:25;;;;;;;16.17;9.23;;;15.30;99.90;;;;;;4947163;28;20047;-83
2022/04/14 10:05:53;;;;;;;14.52;8.80;;;15.30;99.90;;;;;;4949596;28;20099;-81
2022/04/14 10:08:19;;;;;;;13.90;8.77;;;15.40;99.90;;;;;;4962180;28;20047;-82
2022/04/14 10:10:47;;;;;;;20.33;9.70;;;15.30;99.90;;;;;;4965165;28;20046;-83
2022/04/14 10:13:16;;;;;;;15.35;9.15;;;15.30;99.90;;;;;;4945818;28;20043;-83
2022/04/14 10:15:43;;;;;;;15.77;9.05;;;15.40;99.90;;;;;;4936330;28;20055;-83
2022/04/14 10:18:12;;;;;;;17.52;9.60;;;15.60;99.90;;;;;;4993697;28;20036;-83
2022/04/14 10:20:39;;;;;;;14.15;8.55;;;15.70;99.90;;;;;;5035717;28;20339;-84
2022/04/14 10:26:47;;;;;;;16.17;9.25;;;16.40;99.90;;;;;;5062748;28;20130;-83
2022/04/14 10:29:14;;;;;;;12.93;8.60;;;16.80;99.90;;;;;;5052058;28;20049;-83
2022/04/14 10:31:41;;;;;;;13.18;6.35;;;16.90;99.90;;;;;;5048880;28;20068;-84
2022/04/14 10:34:08;;;;;;;10.13;5.43;;;16.70;99.90;;;;;;5033617;28;20048;-83
2022/04/14 10:36:45;;;;;;;8.85;4.85;;;16.50;99.90;;;;;;5036058;28;20383;-84
2022/04/14 10:39:16;;;;;;;8.32;4.93;;;16.50;99.90;;;;;;5070278;28;20056;-84
2022/04/14 10:41:46;;;;;;;8.98;4.82;;;16.70;99.90;;;;;;5052140;28;20055;-84
2022/04/14 10:44:19;;;;;;;10.88;5.10;;;16.90;99.90;;;;;;5052257;28;20479;-85
2022/04/14 10:46:48;;;;;;;11.15;5.20;;;17.10;99.90;;;;;;5065844;28;20463;-84
2022/04/14 10:49:16;;;;;;;11.23;5.10;;;16.90;99.90;;;;;;5035582;28;20055;-84
2022/04/14 10:51:43;;;;;;;6.32;4.13;;;17.00;99.90;;;;;;5034891;28;20060;-83
2022/04/14 10:54:11;;;;;;;7.20;4.32;;;17.20;99.90;;;;;;5051878;28;20110;-84
2022/04/14 10:56:36;;;;;;;8.18;4.60;;;17.20;99.90;;;;;;5067837;28;20035;-85
2022/04/14 10:59:11;;;;;;;7.05;4.10;;;17.40;99.90;;;;;;5034551;28;20403;-84
2022/04/14 11:01:48;;;;;;;8.70;4.22;;;17.70;99.90;;;;;;5051643;28;20056;-85
2022/04/14 11:04:26;;;;;;;9.82;4.20;;;18.00;99.90;;;;;;5051250;28;20044;-86
2022/04/14 11:07:01;;;;;;;8.35;4.38;;;17.70;99.90;;;;;;5052691;28;20045;-84
2022/04/14 11:09:47;;;;;;;8.15;4.40;;;17.50;99.90;;;;;;5052508;28;20067;-85
2022/04/14 11:12:19;;;;;;;6.85;3.80;;;17.00;99.90;;;;;;5034733;28;20113;-85
2022/04/14 11:14:53;;;;;;;6.85;3.20;;;17.20;99.90;;;;;;5037259;28;20372;-85
2022/04/14 11:17:37;;;;;;;7.65;3.97;;;16.90;99.90;;;;;;5038995;28;20063;-87
2022/04/14 11:20:21;;;;;;;11.02;4.60;;;17.20;99.90;;;;;;5034536;28;20044;-89
2022/04/14 11:23:09;;;;;;;10.25;4.47;;;17.40;99.90;;;;;;5035382;28;20074;-85
2022/04/14 11:25:41;;;;;;;;;;;17.50;99.90;;;;;;5051214;28;20086;-83
2022/04/14 11:28:27;;;;;;;7.70;3.88;;;17.70;99.90;;;;;;5034768;28;19924;-85
2022/04/14 11:30:54;;;;;;;8.40;4.05;;;18.00;99.90;;;;;;5037135;28;20136;-88
2022/04/14 11:33:32;;;;;;;7.25;4.15;;;17.90;99.90;;;;;;5032483;28;20041;-86
2022/04/14 11:36:13;;;;;;;8.88;4.05;;;18.10;99.90;;;;;;5053045;28;20123;-83
2022/04/14 11:39:05;;;;;;;5.80;3.80;;;18.00;99.90;;;;;;5032371;28;20091;-84
2022/04/14 11:41:44;;;;;;;8.02;4.50;;;18.20;99.90;;;;;;5067974;28;20398;-83
2022/04/14 11:44:15;;;;;;;6.35;3.35;;;18.20;99.90;;;;;;5032842;28;20051;-84
2022/04/14 11:46:49;;;;;;;6.70;3.30;;;18.50;99.90;;;;;;5035746;28;20114;-84
2022/04/14 11:49:21;;;;;;;11.85;3.85;;;18.30;99.90;;;;;;5052269;28;20060;-83
2022/04/14 11:51:52;;;;;;;6.15;3.72;;;18.30;99.90;;;;;;5033344;28;20049;-85
2022/04/14 11:54:27;;;;;;;6.45;3.25;;;18.30;99.90;;;;;;5035134;28;20048;-87
2022/04/14 11:56:58;;;;;;;6.75;4.20;;;18.70;99.90;;;;;;5057128;28;20036;-86
2022/04/14 11:59:37;;;;;;;9.63;4.50;;;18.90;99.90;;;;;;5056222;28;20131;-86
2022/04/14 12:02:18;;;;;;;12.02;4.45;;;18.50;99.90;;;;;;5051394;28;20098;-82
2022/04/14 12:04:49;;;;;;;8.70;4.20;;;18.50;99.90;;;;;;5051920;28;20037;-82
2022/04/14 12:07:17;;;;;;;8.35;4.35;;;18.50;99.90;;;;;;5033332;28;20029;-82
2022/04/14 12:09:44;;;;;;;8.93;4.10;;;18.70;99.90;;;;;;5037705;28;20043;-83
2022/04/14 12:12:15;;;;;;;6.10;3.40;;;18.60;99.90;;;;;;5053597;28;20123;-82
2022/04/14 12:14:45;;;;;;;6.60;3.25;;;18.60;99.90;;;;;;5035312;28;20068;-81
2022/04/14 12:17:12;;;;;;;9.57;3.45;;;18.20;99.90;;;;;;5052536;28;20040;-82
2022/04/14 12:19:41;;;;;;;10.38;3.58;;;18.40;99.90;;;;;;5053151;28;20051;-85
2022/04/14 12:22:07;;;;;;;7.65;3.40;;;18.50;99.90;;;;;;5033290;28;20044;-85
2022/04/14 12:24:34;;;;;;;8.40;3.60;;;18.30;99.90;;;;;;5034419;28;20051;-83
2022/04/14 12:27:00;;;;;;;7.32;3.17;;;18.40;99.90;;;;;;5038475;28;20043;-84
2022/04/14 12:29:27;;;;;;;7.97;3.50;;;18.30;99.90;;;;;;5039226;28;20376;-84
2022/04/14 12:32:13;;;;;;;7.18;3.50;;;18.10;99.90;;;;;;5056074;28;20125;-84
2022/04/14 12:34:43;;;;;;;5.55;2.90;;;18.20;99.90;;;;;;5036541;28;20120;-85
2022/04/14 12:37:15;;;;;;;9.20;3.20;;;17.90;99.90;;;;;;5037215;28;20397;-85
2022/04/14 12:40:00;;;;;;;5.57;3.15;;;18.00;99.90;;;;;;5032426;28;20270;-83
2022/04/14 12:42:29;;;;;;;8.32;3.80;;;18.10;99.90;;;;;;5031753;28;20045;-84
2022/04/14 12:45:05;;;;;;;8.13;3.50;;;17.90;99.90;;;;;;5037164;28;20067;-86